sensor_id;sensor_type;location;lat;lon;timestamp;pressure;altitude;pressure_sealevel;temperature;humidity
47430;BME280;33181;49.246;7.372;2024-03-23T00:53:55;98061.94;;;10.51;82.21
47430;BME280;33181;49.246;7.372;2024-03-23T00:56:21;98059.47;;;10.59;83.31
47430;BME280;33181;49.246;7.372;2024-03-23T00:58:47;98058.59;;;10.68;84.31
47430;BME280;33181;49.246;7.372;2024-03-23T01:01:13;98052.31;;;10.89;84.02
47430;BME280;33181;49.246;7.372;2024-03-23T01:03:38;98053.81;;;11.01;84.21
47430;BME280;33181;49.246;7.372;2024-03-23T01:06:04;98054.75;;;11.10;83.63
47430;BME280;33181;49.246;7.372;2024-03-23T01:08:30;98048.47;;;11.21;83.05
47430;BME280;33181;49.246;7.372;2024-03-23T01:11:00;98038.66;;;11.23;82.85
47430;BME280;33181;49.246;7.372;2024-03-23T01:13:27;98043.75;;;11.24;82.63
47430;BME280;33181;49.246;7.372;2024-03-23T01:15:55;98044.97;;;11.30;82.50
47430;BME280;33181;49.246;7.372;2024-03-23T01:18:22;98050.66;;;11.25;82.96
47430;BME280;33181;49.246;7.372;2024-03-23T01:20:48;98046.72;;;11.39;82.42
47430;BME280;33181;49.246;7.372;2024-03-23T01:23:14;98040.19;;;11.43;81.95
47430;BME280;33181;49.246;7.372;2024-03-23T01:25:40;98026.31;;;11.51;81.73
47430;BME280;33181;49.246;7.372;2024-03-23T01:28:07;98034.75;;;11.54;81.36
47430;BME280;33181;49.246;7.372;2024-03-23T01:30:36;98036.25;;;11.57;81.32
47430;BME280;33181;49.246;7.372;2024-03-23T01:33:02;98036.56;;;11.54;81.48
47430;BME280;33181;49.246;7.372;2024-03-23T01:35:28;98028.91;;;11.60;81.37
47430;BME280;33181;49.246;7.372;2024-03-23T01:37:54;98024.22;;;11.54;81.88
47430;BME280;33181;49.246;7.372;2024-03-23T01:40:20;98023.03;;;11.67;81.30
47430;BME280;33181;49.246;7.372;2024-03-23T01:43:03;98018.59;;;11.67;80.97
47430;BME280;33181;49.246;7.372;2024-03-23T01:45:31;98022.44;;;11.73;80.86
47430;BME280;33181;49.246;7.372;2024-03-23T01:47:59;98026.78;;;11.64;81.49
47430;BME280;33181;49.246;7.372;2024-03-23T01:50:27;98032.28;;;11.71;81.45
47430;BME280;33181;49.246;7.372;2024-03-23T01:52:54;98027.03;;;11.71;81.47
47430;BME280;33181;49.246;7.372;2024-03-23T01:55:20;98021.00;;;11.78;81.13
47430;BME280;33181;49.246;7.372;2024-03-23T01:57:46;98011.47;;;11.77;80.83
47430;BME280;33181;49.246;7.372;2024-03-23T02:00:13;98022.31;;;11.47;82.68
47430;BME280;33181;49.246;7.372;2024-03-23T02:02:45;98016.47;;;11.53;82.32
47430;BME280;33181;49.246;7.372;2024-03-23T02:05:12;98029.25;;;11.66;81.82
47430;BME280;33181;49.246;7.372;2024-03-23T02:07:42;98022.50;;;11.63;81.96
47430;BME280;33181;49.246;7.372;2024-03-23T02:10:11;98020.47;;;11.57;82.21
47430;BME280;33181;49.246;7.372;2024-03-23T02:12:40;98017.97;;;11.55;82.05
47430;BME280;33181;49.246;7.372;2024-03-23T02:15:06;98018.63;;;11.40;82.91
47430;BME280;33181;49.246;7.372;2024-03-23T02:17:35;98023.72;;;11.41;83.06
47430;BME280;33181;49.246;7.372;2024-03-23T02:20:02;98019.78;;;11.27;83.42
47430;BME280;33181;49.246;7.372;2024-03-23T02:22:40;98025.06;;;11.27;83.38
47430;BME280;33181;49.246;7.372;2024-03-23T02:25:07;98021.59;;;11.27;83.31
47430;BME280;33181;49.246;7.372;2024-03-23T02:27:33;98007.94;;;11.41;82.78
47430;BME280;33181;49.246;7.372;2024-03-23T02:30:00;98018.78;;;11.38;83.02
47430;BME280;33181;49.246;7.372;2024-03-23T02:32:26;98007.94;;;11.41;82.72
47430;BME280;33181;49.246;7.372;2024-03-23T02:34:51;98011.13;;;11.45;82.37
47430;BME280;33181;49.246;7.372;2024-03-23T02:37:17;98010.91;;;11.38;82.63
47430;BME280;33181;49.246;7.372;2024-03-23T02:39:43;98021.09;;;11.41;82.55
47430;BME280;33181;49.246;7.372;2024-03-23T02:42:08;98022.13;;;11.30;83.01
47430;BME280;33181;49.246;7.372;2024-03-23T02:44:34;98019.91;;;11.35;82.91
47430;BME280;33181;49.246;7.372;2024-03-23T02:47:00;98030.25;;;11.37;82.63
47430;BME280;33181;49.246;7.372;2024-03-23T02:49:26;98022.34;;;11.19;83.19
47430;BME280;33181;49.246;7.372;2024-03-23T02:51:52;98013.03;;;11.25;82.86
47430;BME280;33181;49.246;7.372;2024-03-23T02:54:18;98024.97;;;11.19;83.35
47430;BME280;33181;49.246;7.372;2024-03-23T02:56:44;98022.44;;;11.27;83.09
47430;BME280;33181;49.246;7.372;2024-03-23T02:59:09;98026.16;;;11.25;83.29
47430;BME280;33181;49.246;7.372;2024-03-23T03:01:35;98029.63;;;11.25;83.17
47430;BME280;33181;49.246;7.372;2024-03-23T03:04:01;98027.91;;;11.06;84.32
47430;BME280;33181;49.246;7.372;2024-03-23T03:06:27;98009.97;;;11.02;84.38
47430;BME280;33181;49.246;7.372;2024-03-23T03:08:53;98003.97;;;11.09;83.94
47430;BME280;33181;49.246;7.372;2024-03-23T03:11:19;98007.56;;;11.08;84.03
47430;BME280;33181;49.246;7.372;2024-03-23T03:13:44;98011.84;;;11.09;84.13
47430;BME280;33181;49.246;7.372;2024-03-23T03:16:11;98012.53;;;11.11;83.90
47430;BME280;33181;49.246;7.372;2024-03-23T03:18:37;98021.19;;;11.22;83.28
47430;BME280;33181;49.246;7.372;2024-03-23T03:21:04;98014.31;;;11.21;83.40
47430;BME280;33181;49.246;7.372;2024-03-23T03:23:32;98009.22;;;11.09;83.73
47430;BME280;33181;49.246;7.372;2024-03-23T03:25:58;97995.19;;;11.01;84.44
47430;BME280;33181;49.246;7.372;2024-03-23T03:28:23;97988.13;;;11.01;84.25
47430;BME280;33181;49.246;7.372;2024-03-23T03:30:51;98000.97;;;11.04;84.15
47430;BME280;33181;49.246;7.372;2024-03-23T03:33:17;98008.28;;;11.10;83.73
47430;BME280;33181;49.246;7.372;2024-03-23T03:35:43;98013.28;;;11.04;83.56
47430;BME280;33181;49.246;7.372;2024-03-23T03:38:09;98010.78;;;11.02;83.20
47430;BME280;33181;49.246;7.372;2024-03-23T03:40:35;98016.22;;;10.91;83.16
47430;BME280;33181;49.246;7.372;2024-03-23T03:43:01;98012.44;;;10.66;82.87
47430;BME280;33181;49.246;7.372;2024-03-23T03:45:27;98018.81;;;10.63;82.49
47430;BME280;33181;49.246;7.372;2024-03-23T03:47:52;98024.09;;;10.54;81.70
47430;BME280;33181;49.246;7.372;2024-03-23T03:50:19;98010.69;;;10.47;82.50
47430;BME280;33181;49.246;7.372;2024-03-23T03:52:45;98014.72;;;10.32;82.08
47430;BME280;33181;49.246;7.372;2024-03-23T03:55:15;98015.94;;;10.18;82.26
47430;BME280;33181;49.246;7.372;2024-03-23T03:57:41;98031.13;;;10.14;82.50
47430;BME280;33181;49.246;7.372;2024-03-23T04:00:07;98031.13;;;10.24;82.56
47430;BME280;33181;49.246;7.372;2024-03-23T04:02:39;98045.91;;;10.15;83.21
47430;BME280;33181;49.246;7.372;2024-03-23T04:05:05;98045.63;;;9.99;84.62
47430;BME280;33181;49.246;7.372;2024-03-23T04:07:31;98048.50;;;9.96;85.49
47430;BME280;33181;49.246;7.372;2024-03-23T04:09:57;98070.47;;;9.75;85.60
47430;BME280;33181;49.246;7.372;2024-03-23T04:12:23;98069.88;;;9.52;86.38
47430;BME280;33181;49.246;7.372;2024-03-23T04:14:49;98062.69;;;9.55;87.41
47430;BME280;33181;49.246;7.372;2024-03-23T04:17:15;98059.63;;;9.49;87.47
47430;BME280;33181;49.246;7.372;2024-03-23T04:19:41;98083.03;;;9.32;88.18
47430;BME280;33181;49.246;7.372;2024-03-23T04:22:07;98073.91;;;9.26;87.59
47430;BME280;33181;49.246;7.372;2024-03-23T04:24:33;98074.97;;;9.23;87.58
47430;BME280;33181;49.246;7.372;2024-03-23T04:26:59;98076.78;;;9.23;87.92
47430;BME280;33181;49.246;7.372;2024-03-23T04:29:25;98079.88;;;9.07;88.67
47430;BME280;33181;49.246;7.372;2024-03-23T04:31:52;98093.53;;;9.11;88.28
47430;BME280;33181;49.246;7.372;2024-03-23T04:34:18;98098.47;;;9.04;87.79
47430;BME280;33181;49.246;7.372;2024-03-23T04:36:46;98100.94;;;8.96;87.92
47430;BME280;33181;49.246;7.372;2024-03-23T04:39:12;98102.03;;;8.93;87.57
47430;BME280;33181;49.246;7.372;2024-03-23T04:41:38;98104.22;;;8.98;86.98
47430;BME280;33181;49.246;7.372;2024-03-23T04:44:04;98103.81;;;8.93;87.12
47430;BME280;33181;49.246;7.372;2024-03-23T04:46:29;98116.59;;;8.86;87.35
47430;BME280;33181;49.246;7.372;2024-03-23T04:48:55;98113.47;;;8.92;87.60
47430;BME280;33181;49.246;7.372;2024-03-23T04:51:23;98125.84;;;8.90;87.22
47430;BME280;33181;49.246;7.372;2024-03-23T04:53:49;98114.81;;;8.87;87.83
47430;BME280;33181;49.246;7.372;2024-03-23T04:56:18;98131.84;;;8.81;88.11
47430;BME280;33181;49.246;7.372;2024-03-23T04:58:44;98133.25;;;8.64;88.09
47430;BME280;33181;49.246;7.372;2024-03-23T05:01:11;98140.50;;;8.61;87.67
47430;BME280;33181;49.246;7.372;2024-03-23T05:03:36;98132.66;;;8.61;86.17
47430;BME280;33181;49.246;7.372;2024-03-23T05:06:02;98142.81;;;8.54;85.27
47430;BME280;33181;49.246;7.372;2024-03-23T05:08:28;98143.56;;;8.45;85.39
47430;BME280;33181;49.246;7.372;2024-03-23T05:10:59;98141.69;;;8.35;85.22
47430;BME280;33181;49.246;7.372;2024-03-23T05:13:25;98145.75;;;8.40;85.47
47430;BME280;33181;49.246;7.372;2024-03-23T05:15:55;98144.91;;;8.39;85.59
47430;BME280;33181;49.246;7.372;2024-03-23T05:18:22;98154.88;;;8.34;85.44
47430;BME280;33181;49.246;7.372;2024-03-23T05:20:48;98146.19;;;8.45;85.47
47430;BME280;33181;49.246;7.372;2024-03-23T05:23:13;98138.72;;;8.40;85.87
47430;BME280;33181;49.246;7.372;2024-03-23T05:25:39;98154.88;;;8.45;85.96
47430;BME280;33181;49.246;7.372;2024-03-23T05:28:05;98156.06;;;8.41;86.13
47430;BME280;33181;49.246;7.372;2024-03-23T05:30:31;98152.03;;;8.26;85.43
47430;BME280;33181;49.246;7.372;2024-03-23T05:32:56;98153.97;;;8.24;85.12
47430;BME280;33181;49.246;7.372;2024-03-23T05:35:22;98167.06;;;8.24;85.70
47430;BME280;33181;49.246;7.372;2024-03-23T05:37:48;98173.50;;;8.20;85.87
47430;BME280;33181;49.246;7.372;2024-03-23T05:40:14;98178.19;;;8.26;85.91
47430;BME280;33181;49.246;7.372;2024-03-23T05:42:41;98185.81;;;8.29;84.79
47430;BME280;33181;49.246;7.372;2024-03-23T05:45:07;98185.03;;;8.17;85.56
47430;BME280;33181;49.246;7.372;2024-03-23T05:47:33;98187.53;;;8.07;86.89
47430;BME280;33181;49.246;7.372;2024-03-23T05:49:59;98192.16;;;8.04;87.72
47430;BME280;33181;49.246;7.372;2024-03-23T05:52:25;98188.28;;;7.98;89.26
47430;BME280;33181;49.246;7.372;2024-03-23T05:54:51;98201.59;;;7.95;90.21
47430;BME280;33181;49.246;7.372;2024-03-23T05:57:17;98201.22;;;8.00;90.60
47430;BME280;33181;49.246;7.372;2024-03-23T05:59:47;98198.25;;;8.04;90.39
47430;BME280;33181;49.246;7.372;2024-03-23T06:02:13;98193.34;;;8.11;90.32
47430;BME280;33181;49.246;7.372;2024-03-23T06:04:40;98206.69;;;8.08;90.92
47430;BME280;33181;49.246;7.372;2024-03-23T06:07:05;98205.00;;;8.07;91.07
47430;BME280;33181;49.246;7.372;2024-03-23T06:09:42;98212.25;;;8.03;91.24
47430;BME280;33181;49.246;7.372;2024-03-23T06:12:08;98220.59;;;8.08;90.50
47430;BME280;33181;49.246;7.372;2024-03-23T06:14:34;98220.69;;;8.07;90.73
47430;BME280;33181;49.246;7.372;2024-03-23T06:17:00;98230.22;;;8.08;90.12
47430;BME280;33181;49.246;7.372;2024-03-23T06:19:27;98240.53;;;8.09;89.47
47430;BME280;33181;49.246;7.372;2024-03-23T06:21:54;98238.88;;;8.08;88.66
47430;BME280;33181;49.246;7.372;2024-03-23T06:24:21;98254.13;;;7.92;88.19
47430;BME280;33181;49.246;7.372;2024-03-23T06:26:47;98251.03;;;7.98;87.87
47430;BME280;33181;49.246;7.372;2024-03-23T06:29:13;98266.72;;;7.98;86.80
47430;BME280;33181;49.246;7.372;2024-03-23T06:31:39;98273.97;;;8.06;85.75
47430;BME280;33181;49.246;7.372;2024-03-23T06:34:04;98284.19;;;8.09;85.25
47430;BME280;33181;49.246;7.372;2024-03-23T06:36:30;98302.75;;;8.17;84.56
47430;BME280;33181;49.246;7.372;2024-03-23T06:38:56;98306.06;;;8.08;82.91
47430;BME280;33181;49.246;7.372;2024-03-23T06:41:23;98303.56;;;8.18;82.14
47430;BME280;33181;49.246;7.372;2024-03-23T06:43:48;98316.28;;;8.22;81.92
47430;BME280;33181;49.246;7.372;2024-03-23T06:46:14;98316.16;;;8.35;80.81
47430;BME280;33181;49.246;7.372;2024-03-23T06:48:40;98326.16;;;8.52;79.44
47430;BME280;33181;49.246;7.372;2024-03-23T06:51:05;98345.56;;;8.61;78.09
47430;BME280;33181;49.246;7.372;2024-03-23T06:53:32;98353.41;;;8.50;78.04
47430;BME280;33181;49.246;7.372;2024-03-23T06:55:58;98362.09;;;8.39;77.34
47430;BME280;33181;49.246;7.372;2024-03-23T06:58:24;98362.19;;;8.38;77.54
47430;BME280;33181;49.246;7.372;2024-03-23T07:00:50;98381.22;;;8.28;77.44
47430;BME280;33181;49.246;7.372;2024-03-23T07:03:20;98373.34;;;8.28;77.45
47430;BME280;33181;49.246;7.372;2024-03-23T07:05:47;98380.75;;;8.34;76.40
47430;BME280;33181;49.246;7.372;2024-03-23T07:08:12;98381.22;;;8.28;74.87
47430;BME280;33181;49.246;7.372;2024-03-23T07:10:41;98383.13;;;8.38;74.60
47430;BME280;33181;49.246;7.372;2024-03-23T07:13:07;98386.22;;;8.54;74.32
47430;BME280;33181;49.246;7.372;2024-03-23T07:15:33;98389.66;;;8.88;73.43
47430;BME280;33181;49.246;7.372;2024-03-23T07:17:59;98401.47;;;9.26;72.68
47430;BME280;33181;49.246;7.372;2024-03-23T07:20:25;98393.00;;;9.34;70.85
47430;BME280;33181;49.246;7.372;2024-03-23T07:22:50;98410.88;;;9.17;70.31
47430;BME280;33181;49.246;7.372;2024-03-23T07:25:16;98415.94;;;9.09;70.11
47430;BME280;33181;49.246;7.372;2024-03-23T07:27:42;98415.63;;;9.23;70.65
47430;BME280;33181;49.246;7.372;2024-03-23T07:30:08;98424.13;;;9.16;68.83
47430;BME280;33181;49.246;7.372;2024-03-23T07:32:35;98416.13;;;9.17;68.99
47430;BME280;33181;49.246;7.372;2024-03-23T07:35:01;98421.84;;;9.22;67.80
47430;BME280;33181;49.246;7.372;2024-03-23T07:37:27;98425.19;;;9.13;66.63
47430;BME280;33181;49.246;7.372;2024-03-23T07:39:52;98422.47;;;9.15;66.39
47430;BME280;33181;49.246;7.372;2024-03-23T07:42:18;98440.63;;;9.39;66.20
47430;BME280;33181;49.246;7.372;2024-03-23T07:44:44;98430.84;;;9.73;64.41
47430;BME280;33181;49.246;7.372;2024-03-23T07:47:09;98437.25;;;10.01;63.47
47430;BME280;33181;49.246;7.372;2024-03-23T07:49:35;98441.81;;;10.41;62.25
47430;BME280;33181;49.246;7.372;2024-03-23T07:52:01;98438.75;;;10.66;60.54
47430;BME280;33181;49.246;7.372;2024-03-23T07:54:27;98445.91;;;10.64;60.39
47430;BME280;33181;49.246;7.372;2024-03-23T07:56:52;98448.66;;;10.53;60.69
47430;BME280;33181;49.246;7.372;2024-03-23T07:59:18;98451.69;;;10.28;60.24
47430;BME280;33181;49.246;7.372;2024-03-23T08:01:45;98456.81;;;10.29;60.74
47430;BME280;33181;49.246;7.372;2024-03-23T08:04:13;98462.78;;;9.99;61.56
47430;BME280;33181;49.246;7.372;2024-03-23T08:06:39;98464.28;;;9.60;63.33
47430;BME280;33181;49.246;7.372;2024-03-23T08:09:05;98468.19;;;9.33;63.33
47430;BME280;33181;49.246;7.372;2024-03-23T08:11:32;98466.44;;;9.00;64.21
47430;BME280;33181;49.246;7.372;2024-03-23T08:14:00;98459.16;;;9.15;65.40
47430;BME280;33181;49.246;7.372;2024-03-23T08:16:26;98463.28;;;9.17;64.78
47430;BME280;33181;49.246;7.372;2024-03-23T08:18:52;98463.81;;;9.00;65.15
47430;BME280;33181;49.246;7.372;2024-03-23T08:21:19;98470.84;;;8.99;65.49
47430;BME280;33181;49.246;7.372;2024-03-23T08:23:44;98467.25;;;9.12;65.98
47430;BME280;33181;49.246;7.372;2024-03-23T08:26:12;98468.81;;;9.03;66.17
47430;BME280;33181;49.246;7.372;2024-03-23T08:28:39;98467.63;;;8.85;66.28
47430;BME280;33181;49.246;7.372;2024-03-23T08:31:07;98476.94;;;8.77;65.92
47430;BME280;33181;49.246;7.372;2024-03-23T08:33:34;98475.63;;;8.83;66.90
47430;BME280;33181;49.246;7.372;2024-03-23T08:36:06;98485.59;;;8.67;70.17
47430;BME280;33181;49.246;7.372;2024-03-23T08:38:32;98500.63;;;8.29;72.99
47430;BME280;33181;49.246;7.372;2024-03-23T08:41:02;98487.69;;;7.93;75.04
47430;BME280;33181;49.246;7.372;2024-03-23T08:43:40;98488.28;;;7.96;76.24
47430;BME280;33181;49.246;7.372;2024-03-23T08:46:10;98488.34;;;8.07;76.91
47430;BME280;33181;49.246;7.372;2024-03-23T08:48:41;98499.84;;;8.05;78.08
47430;BME280;33181;49.246;7.372;2024-03-23T08:51:10;98493.25;;;8.23;78.37
47430;BME280;33181;49.246;7.372;2024-03-23T08:53:37;98483.63;;;8.24;78.24
47430;BME280;33181;49.246;7.372;2024-03-23T08:56:05;98488.66;;;8.03;79.06
47430;BME280;33181;49.246;7.372;2024-03-23T08:58:33;98499.16;;;8.14;78.80
47430;BME280;33181;49.246;7.372;2024-03-23T09:01:10;98499.25;;;8.01;78.87
47430;BME280;33181;49.246;7.372;2024-03-23T09:03:36;98502.53;;;7.92;77.82
47430;BME280;33181;49.246;7.372;2024-03-23T09:06:09;98514.81;;;8.03;78.71
47430;BME280;33181;49.246;7.372;2024-03-23T09:08:38;98500.91;;;8.02;78.19
47430;BME280;33181;49.246;7.372;2024-03-23T09:11:07;98504.84;;;8.08;78.05
47430;BME280;33181;49.246;7.372;2024-03-23T09:13:35;98506.66;;;8.07;77.23
47430;BME280;33181;49.246;7.372;2024-03-23T09:16:01;98511.44;;;8.25;77.74
47430;BME280;33181;49.246;7.372;2024-03-23T09:18:27;98507.16;;;8.35;76.41
47430;BME280;33181;49.246;7.372;2024-03-23T09:20:53;98503.22;;;8.18;75.26
47430;BME280;33181;49.246;7.372;2024-03-23T09:23:23;98505.34;;;8.13;75.50
47430;BME280;33181;49.246;7.372;2024-03-23T09:25:51;98502.03;;;8.22;74.90
47430;BME280;33181;49.246;7.372;2024-03-23T09:28:16;98501.84;;;8.36;74.26
47430;BME280;33181;49.246;7.372;2024-03-23T09:30:42;98511.97;;;8.41;73.05
47430;BME280;33181;49.246;7.372;2024-03-23T09:33:12;98508.56;;;8.52;74.77
47430;BME280;33181;49.246;7.372;2024-03-23T09:35:39;98503.00;;;8.68;72.47
47430;BME280;33181;49.246;7.372;2024-03-23T09:38:06;98507.63;;;9.09;72.49
47430;BME280;33181;49.246;7.372;2024-03-23T09:40:33;98502.78;;;9.59;71.48
47430;BME280;33181;49.246;7.372;2024-03-23T09:42:59;98502.22;;;9.77;70.56
47430;BME280;33181;49.246;7.372;2024-03-23T09:45:29;98496.53;;;10.25;69.01
47430;BME280;33181;49.246;7.372;2024-03-23T09:47:55;98499.63;;;10.51;68.29
47430;BME280;33181;49.246;7.372;2024-03-23T09:50:22;98499.44;;;10.94;66.45
47430;BME280;33181;49.246;7.372;2024-03-23T09:52:48;98504.25;;;11.29;64.57
47430;BME280;33181;49.246;7.372;2024-03-23T09:55:14;98498.75;;;11.42;62.44
47430;BME280;33181;49.246;7.372;2024-03-23T09:57:43;98495.56;;;11.48;62.16
47430;BME280;33181;49.246;7.372;2024-03-23T10:00:09;98490.78;;;11.73;61.82
47430;BME280;33181;49.246;7.372;2024-03-23T10:02:35;98498.44;;;11.86;57.77
47430;BME280;33181;49.246;7.372;2024-03-23T10:05:01;98495.91;;;11.14;57.32
47430;BME280;33181;49.246;7.372;2024-03-23T10:07:27;98488.50;;;10.99;58.61
47430;BME280;33181;49.246;7.372;2024-03-23T10:09:54;98482.09;;;10.82;58.78
47430;BME280;33181;49.246;7.372;2024-03-23T10:12:20;98468.16;;;10.91;59.31
47430;BME280;33181;49.246;7.372;2024-03-23T10:14:46;98479.81;;;10.98;58.53
47430;BME280;33181;49.246;7.372;2024-03-23T10:17:20;98481.94;;;10.83;57.13
47430;BME280;33181;49.246;7.372;2024-03-23T10:19:51;98471.47;;;10.93;56.85
47430;BME280;33181;49.246;7.372;2024-03-23T10:22:22;98459.53;;;11.20;53.58
47430;BME280;33181;49.246;7.372;2024-03-23T10:24:49;98466.66;;;11.48;53.86
47430;BME280;33181;49.246;7.372;2024-03-23T10:27:20;98457.53;;;11.91;53.43
47430;BME280;33181;49.246;7.372;2024-03-23T10:29:47;98460.75;;;11.95;52.10
47430;BME280;33181;49.246;7.372;2024-03-23T10:32:16;98456.94;;;12.36;49.52
47430;BME280;33181;49.246;7.372;2024-03-23T10:34:42;98454.91;;;12.58;47.93
47430;BME280;33181;49.246;7.372;2024-03-23T10:37:08;98463.00;;;12.46;47.35
47430;BME280;33181;49.246;7.372;2024-03-23T10:39:35;98467.34;;;12.28;46.36
47430;BME280;33181;49.246;7.372;2024-03-23T10:42:06;98456.31;;;11.86;47.50
47430;BME280;33181;49.246;7.372;2024-03-23T10:44:36;98461.13;;;12.10;46.73
47430;BME280;33181;49.246;7.372;2024-03-23T10:47:03;98453.47;;;12.45;45.44
47430;BME280;33181;49.246;7.372;2024-03-23T10:49:31;98452.22;;;12.40;45.66
47430;BME280;33181;49.246;7.372;2024-03-23T10:52:07;98473.88;;;12.24;46.80
47430;BME280;33181;49.246;7.372;2024-03-23T10:54:33;98536.69;;;11.49;49.34
47430;BME280;33181;49.246;7.372;2024-03-23T10:57:08;98557.78;;;9.82;60.18
47430;BME280;33181;49.246;7.372;2024-03-23T10:59:37;98521.31;;;8.68;66.27
47430;BME280;33181;49.246;7.372;2024-03-23T11:02:04;98535.22;;;8.68;69.51
47430;BME280;33181;49.246;7.372;2024-03-23T11:04:37;98527.38;;;8.91;70.11
47430;BME280;33181;49.246;7.372;2024-03-23T11:09:53;98520.22;;;9.49;68.91
47430;BME280;33181;49.246;7.372;2024-03-23T11:15:13;98495.34;;;10.80;64.51
47430;BME280;33181;49.246;7.372;2024-03-23T11:17:40;98489.13;;;11.22;62.04
47430;BME280;33181;49.246;7.372;2024-03-23T11:20:07;98479.84;;;11.97;60.30
47430;BME280;33181;49.246;7.372;2024-03-23T11:25:16;98460.13;;;11.81;57.31
47430;BME280;33181;49.246;7.372;2024-03-23T11:27:45;98465.97;;;12.24;56.81
47430;BME280;33181;49.246;7.372;2024-03-23T11:32:47;98459.41;;;12.85;54.19
47430;BME280;33181;49.246;7.372;2024-03-23T11:35:31;98458.22;;;12.03;51.46
47430;BME280;33181;49.246;7.372;2024-03-23T11:38:15;98471.03;;;11.28;54.55
47430;BME280;33181;49.246;7.372;2024-03-23T11:40:49;98506.00;;;10.79;59.14
47430;BME280;33181;49.246;7.372;2024-03-23T11:43:17;98570.06;;;9.81;64.37
47430;BME280;33181;49.246;7.372;2024-03-23T11:45:53;98575.63;;;8.42;68.15
47430;BME280;33181;49.246;7.372;2024-03-23T11:48:22;98562.88;;;7.65;71.56
47430;BME280;33181;49.246;7.372;2024-03-23T11:50:50;98557.09;;;7.49;73.43
47430;BME280;33181;49.246;7.372;2024-03-23T11:53:21;98558.53;;;7.53;76.02
47430;BME280;33181;49.246;7.372;2024-03-23T11:58:23;98560.06;;;7.68;76.89
47430;BME280;33181;49.246;7.372;2024-03-23T12:00:58;98560.84;;;7.57;77.84
47430;BME280;33181;49.246;7.372;2024-03-23T12:03:25;98563.31;;;7.59;78.08
47430;BME280;33181;49.246;7.372;2024-03-23T12:06:09;98574.28;;;7.27;79.27
47430;BME280;33181;49.246;7.372;2024-03-23T12:08:35;98566.06;;;6.95;78.20
47430;BME280;33181;49.246;7.372;2024-03-23T12:11:06;98555.63;;;6.82;77.75
47430;BME280;33181;49.246;7.372;2024-03-23T12:13:33;98545.28;;;6.81;77.97
47430;BME280;33181;49.246;7.372;2024-03-23T12:16:21;98554.88;;;6.42;78.59
47430;BME280;33181;49.246;7.372;2024-03-23T12:18:50;98540.13;;;6.15;78.79
47430;BME280;33181;49.246;7.372;2024-03-23T12:21:18;98516.03;;;6.12;80.03
47430;BME280;33181;49.246;7.372;2024-03-23T12:23:44;98511.69;;;6.63;81.98
47430;BME280;33181;49.246;7.372;2024-03-23T12:26:12;98506.69;;;7.23;81.63
47430;BME280;33181;49.246;7.372;2024-03-23T12:28:38;98494.03;;;7.77;76.10
47430;BME280;33181;49.246;7.372;2024-03-23T12:31:04;98491.28;;;8.03;74.38
47430;BME280;33181;49.246;7.372;2024-03-23T12:33:31;98485.31;;;8.36;74.18
47430;BME280;33181;49.246;7.372;2024-03-23T12:35:57;98489.97;;;8.44;73.49
47430;BME280;33181;49.246;7.372;2024-03-23T12:38:22;98494.38;;;8.43;71.54
47430;BME280;33181;49.246;7.372;2024-03-23T12:40:49;98492.63;;;8.55;72.91
47430;BME280;33181;49.246;7.372;2024-03-23T12:43:16;98492.50;;;8.45;73.95
47430;BME280;33181;49.246;7.372;2024-03-23T12:45:49;98507.47;;;8.08;72.91
47430;BME280;33181;49.246;7.372;2024-03-23T12:48:21;98496.72;;;7.88;74.67
47430;BME280;33181;49.246;7.372;2024-03-23T12:50:46;98496.19;;;7.59;73.35
47430;BME280;33181;49.246;7.372;2024-03-23T12:53:12;98486.69;;;7.34;75.25
47430;BME280;33181;49.246;7.372;2024-03-23T12:55:38;98477.03;;;7.48;76.55
47430;BME280;33181;49.246;7.372;2024-03-23T12:58:04;98466.63;;;7.94;76.05
47430;BME280;33181;49.246;7.372;2024-03-23T13:00:30;98458.00;;;8.51;74.84
47430;BME280;33181;49.246;7.372;2024-03-23T13:02:56;98462.13;;;8.54;72.10
47430;BME280;33181;49.246;7.372;2024-03-23T13:05:21;98456.19;;;8.97;73.24
47430;BME280;33181;49.246;7.372;2024-03-23T13:07:47;98451.03;;;9.61;71.69
47430;BME280;33181;49.246;7.372;2024-03-23T13:10:13;98454.41;;;10.05;69.19
47430;BME280;33181;49.246;7.372;2024-03-23T13:12:40;98435.47;;;10.23;67.45
47430;BME280;33181;49.246;7.372;2024-03-23T13:15:06;98427.78;;;10.31;64.95
47430;BME280;33181;49.246;7.372;2024-03-23T13:17:32;98432.22;;;10.09;61.98
47430;BME280;33181;49.246;7.372;2024-03-23T13:19:57;98431.03;;;10.02;65.44
47430;BME280;33181;49.246;7.372;2024-03-23T13:22:23;98428.34;;;9.92;66.19
47430;BME280;33181;49.246;7.372;2024-03-23T13:24:49;98435.22;;;9.84;65.03
47430;BME280;33181;49.246;7.372;2024-03-23T13:27:15;98457.22;;;9.60;67.66
47430;BME280;33181;49.246;7.372;2024-03-23T13:29:41;98457.16;;;8.62;69.98
47430;BME280;33181;49.246;7.372;2024-03-23T13:32:10;98451.16;;;8.26;71.66
47430;BME280;33181;49.246;7.372;2024-03-23T13:34:36;98454.50;;;7.58;73.17
47430;BME280;33181;49.246;7.372;2024-03-23T13:37:01;98456.19;;;7.35;75.08
47430;BME280;33181;49.246;7.372;2024-03-23T13:39:27;98442.84;;;7.27;75.92
47430;BME280;33181;49.246;7.372;2024-03-23T13:41:53;98438.44;;;7.51;78.91
47430;BME280;33181;49.246;7.372;2024-03-23T13:44:21;98423.75;;;7.61;77.77
47430;BME280;33181;49.246;7.372;2024-03-23T13:46:47;98423.81;;;7.73;78.05
47430;BME280;33181;49.246;7.372;2024-03-23T13:49:29;98414.69;;;7.89;78.49
47430;BME280;33181;49.246;7.372;2024-03-23T13:51:56;98409.72;;;7.98;77.68
47430;BME280;33181;49.246;7.372;2024-03-23T13:54:27;98390.63;;;8.31;78.89
47430;BME280;33181;49.246;7.372;2024-03-23T13:56:55;98391.56;;;8.75;77.01
47430;BME280;33181;49.246;7.372;2024-03-23T13:59:22;98393.16;;;9.21;75.88
47430;BME280;33181;49.246;7.372;2024-03-23T14:01:49;98377.50;;;9.63;74.82
47430;BME280;33181;49.246;7.372;2024-03-23T14:04:15;98377.25;;;9.87;74.01
47430;BME280;33181;49.246;7.372;2024-03-23T14:06:46;98374.53;;;9.77;69.81
47430;BME280;33181;49.246;7.372;2024-03-23T14:09:12;98383.94;;;9.80;69.43
47430;BME280;33181;49.246;7.372;2024-03-23T14:11:39;98377.03;;;9.79;68.06
47430;BME280;33181;49.246;7.372;2024-03-23T14:14:09;98374.69;;;9.75;67.26